Time;durP1;ratioP1;P1;durP2;ratioP2;P2;SDS_P1;SDS_P2;PMS_P1;PMS_P2;Temp;Humidity;BMP_temperature;BMP_pressure;BME280_temperature;BME280_humidity;BME280_pressure;Samples;Min_cycle;Max_cycle;Signal;HPM_P1;HPM_P2
2023/06/05 00:00:31;;;;;;;5.90;2.90;;;15.00;99.90;;;;;;5030117;28;20178;-36
2023/06/05 00:02:57;;;;;;;5.67;2.90;;;15.00;99.90;;;;;;5035950;28;20255;-41
2023/06/05 00:05:25;;;;;;;4.83;3.20;;;14.90;99.90;;;;;;5036277;28;20202;-42
2023/06/05 00:07:52;;;;;;;4.57;2.83;;;14.90;99.90;;;;;;5049397;28;20190;-42
2023/06/05 00:10:17;;;;;;;3.63;3.00;;;15.00;99.90;;;;;;5031255;28;20217;-42
2023/06/05 00:12:44;;;;;;;4.67;2.93;;;14.90;99.90;;;;;;5053120;28;20184;-41
2023/06/05 00:15:10;;;;;;;3.27;2.97;;;14.90;99.90;;;;;;5039570;28;20210;-41
2023/06/05 00:17:37;;;;;;;5.07;3.20;;;14.90;99.90;;;;;;5046514;28;20228;-42
2023/06/05 00:20:03;;;;;;;3.63;3.27;;;14.80;99.90;;;;;;5056283;28;20181;-40
2023/06/05 00:22:31;;;;;;;3.73;3.10;;;14.70;99.90;;;;;;5054540;28;20205;-42
2023/06/05 00:24:57;;;;;;;4.03;3.20;;;14.70;99.90;;;;;;5044926;28;20268;-42
2023/06/05 00:27:23;;;;;;;4.70;3.33;;;14.70;99.90;;;;;;5038474;28;20185;-40
2023/06/05 00:29:49;;;;;;;5.03;3.57;;;14.60;99.90;;;;;;5031964;28;20187;-41
2023/06/05 00:32:15;;;;;;;3.43;2.93;;;14.60;99.90;;;;;;5041153;28;20277;-40
2023/06/05 00:34:41;;;;;;;4.80;2.57;;;14.50;99.90;;;;;;5050695;28;20300;-42
2023/06/05 00:37:07;;;;;;;4.73;3.33;;;14.40;99.90;;;;;;5044744;28;20213;-39
2023/06/05 00:39:33;;;;;;;2.63;2.43;;;14.30;99.90;;;;;;5034898;28;20182;-41
2023/06/05 00:41:58;;;;;;;5.10;3.30;;;14.20;99.90;;;;;;5031655;28;20196;-41
2023/06/05 00:44:24;;;;;;;5.33;3.23;;;14.00;99.90;;;;;;5029787;28;20213;-42
2023/06/05 00:46:52;;;;;;;4.07;3.10;;;13.90;99.90;;;;;;5039577;28;20246;-42
2023/06/05 00:49:19;;;;;;;3.10;2.80;;;13.90;99.90;;;;;;5050401;28;20181;-42
2023/06/05 00:51:46;;;;;;;4.10;3.03;;;13.80;99.90;;;;;;5047823;28;20237;-39
2023/06/05 00:54:13;;;;;;;3.10;2.60;;;13.80;99.90;;;;;;5047515;28;20695;-40
2023/06/05 00:56:44;;;;;;;3.77;3.27;;;13.80;99.90;;;;;;5045294;28;20209;-41
2023/06/05 00:59:12;;;;;;;5.10;3.20;;;13.70;99.90;;;;;;5058135;28;20199;-39
2023/06/05 01:01:37;;;;;;;4.10;2.83;;;13.70;99.90;;;;;;5055558;28;20187;-41
2023/06/05 01:04:03;;;;;;;3.57;2.97;;;13.70;99.90;;;;;;5039165;28;20756;-40
2023/06/05 01:06:38;;;;;;;5.33;2.80;;;13.60;99.90;;;;;;5046990;28;20281;-41
2023/06/05 01:09:05;;;;;;;4.10;2.77;;;13.60;99.90;;;;;;5063173;28;20183;-39
2023/06/05 01:11:40;;;;;;;4.30;2.70;;;13.60;99.90;;;;;;5049546;28;20184;-41
2023/06/05 01:14:17;;;;;;;5.20;2.70;;;13.60;99.90;;;;;;5046889;28;20694;-42
2023/06/05 01:16:50;;;;;;;4.87;2.67;;;13.60;99.90;;;;;;5052903;28;20188;-42
2023/06/05 01:19:17;;;;;;;3.63;3.00;;;13.60;99.90;;;;;;5041778;28;20185;-42
2023/06/05 01:21:43;;;;;;;4.47;2.80;;;13.60;99.90;;;;;;5053020;28;20258;-39
2023/06/05 01:24:09;;;;;;;4.67;2.80;;;13.60;99.90;;;;;;5039784;28;20228;-41
2023/06/05 01:27:07;;;;;;;3.83;2.80;;;13.50;99.90;;;;;;5046588;28;20180;-40
2023/06/05 01:30:00;;;;;;;4.83;2.70;;;13.50;99.90;;;;;;5022396;28;20196;-42
2023/06/05 01:32:36;;;;;;;4.03;2.83;;;13.50;99.90;;;;;;5022706;28;20187;-42
2023/06/05 01:35:16;;;;;;;4.73;2.70;;;13.40;99.90;;;;;;5054931;28;20244;-42
2023/06/05 01:37:48;;;;;;;3.27;2.73;;;13.40;99.90;;;;;;5034895;28;20202;-41
2023/06/05 01:40:17;;;;;;;3.40;3.10;;;13.30;99.90;;;;;;5055729;28;20184;-42
2023/06/05 01:42:45;;;;;;;4.00;3.13;;;13.30;99.90;;;;;;5058602;28;20667;-42
2023/06/05 01:45:13;;;;;;;3.67;3.00;;;13.30;99.90;;;;;;5051843;28;20240;-41
2023/06/05 01:47:39;;;;;;;3.00;2.70;;;13.30;99.90;;;;;;5060614;28;20195;-39
2023/06/05 01:50:08;;;;;;;4.80;2.93;;;13.20;99.90;;;;;;5037177;28;20210;-41
2023/06/05 01:52:34;;;;;;;3.13;2.83;;;13.10;99.90;;;;;;5053036;28;20189;-42
2023/06/05 01:55:02;;;;;;;4.87;2.73;;;13.10;99.90;;;;;;5039406;28;20240;-41
2023/06/05 01:57:29;;;;;;;3.33;2.67;;;13.10;99.90;;;;;;5060775;28;20235;-42
2023/06/05 01:59:55;;;;;;;2.90;2.60;;;13.00;99.90;;;;;;5039212;28;20229;-40
2023/06/05 02:02:22;;;;;;;4.77;3.30;;;13.00;99.90;;;;;;5053932;28;20183;-42
2023/06/05 02:04:53;;;;;;;4.27;3.13;;;12.90;99.90;;;;;;5022052;28;20195;-41
2023/06/05 02:07:21;;;;;;;5.17;3.13;;;12.90;99.90;;;;;;5054086;28;20188;-41
2023/06/05 02:09:47;;;;;;;3.80;3.03;;;13.00;99.90;;;;;;5027479;28;20179;-40
2023/06/05 02:12:15;;;;;;;4.20;2.43;;;12.90;99.90;;;;;;5051097;28;20187;-42
2023/06/05 02:14:44;;;;;;;4.03;3.27;;;12.90;99.90;;;;;;5029598;28;20209;-40
2023/06/05 02:17:14;;;;;;;3.27;2.90;;;12.90;99.90;;;;;;5027403;28;20263;-41
2023/06/05 02:19:40;;;;;;;4.07;2.83;;;12.80;99.90;;;;;;5040635;28;20171;-42
2023/06/05 02:22:06;;;;;;;3.00;2.70;;;12.80;99.90;;;;;;5056623;28;20190;-42
2023/06/05 02:24:33;;;;;;;3.17;2.77;;;12.80;99.90;;;;;;5029436;28;20254;-40
2023/06/05 02:26:59;;;;;;;5.07;2.63;;;12.80;99.90;;;;;;5054006;28;20184;-42
2023/06/05 02:29:25;;;;;;;4.47;2.97;;;12.70;99.90;;;;;;5041662;28;20184;-40
2023/06/05 02:31:50;;;;;;;3.87;2.70;;;12.70;99.90;;;;;;5030108;28;20188;-41
2023/06/05 02:34:16;;;;;;;3.53;2.83;;;12.60;99.90;;;;;;5058179;28;20239;-40
2023/06/05 02:36:45;;;;;;;3.10;2.80;;;12.60;99.90;;;;;;5035520;28;20190;-41
2023/06/05 02:39:11;;;;;;;3.67;3.00;;;12.50;99.90;;;;;;5039552;28;20262;-42
2023/06/05 02:41:38;;;;;;;5.53;3.20;;;12.50;99.90;;;;;;5026278;28;20318;-42
2023/06/05 02:44:04;;;;;;;4.33;3.67;;;12.40;99.90;;;;;;5045819;28;20238;-41
2023/06/05 02:46:30;;;;;;;4.13;3.13;;;12.40;99.90;;;;;;5037364;28;20265;-42
2023/06/05 02:48:55;;;;;;;3.50;2.80;;;12.30;99.90;;;;;;5017819;28;20184;-38
2023/06/05 02:51:21;;;;;;;3.07;2.73;;;12.30;99.90;;;;;;5041609;28;20186;-42
2023/06/05 02:53:47;;;;;;;3.27;2.63;;;12.30;99.90;;;;;;5063649;28;20198;-42
2023/06/05 02:56:16;;;;;;;4.07;2.53;;;12.30;99.90;;;;;;5043254;28;20197;-41
2023/06/05 02:58:46;;;;;;;3.07;2.50;;;12.30;99.90;;;;;;5040760;28;20203;-42
2023/06/05 03:01:12;;;;;;;2.97;2.67;;;12.20;99.90;;;;;;5036396;28;20190;-41
2023/06/05 03:03:42;;;;;;;3.67;2.57;;;12.10;99.90;;;;;;5040461;28;20760;-41
2023/06/05 03:06:08;;;;;;;4.67;3.00;;;12.00;99.90;;;;;;5047204;28;20188;-41
2023/06/05 03:08:40;;;;;;;4.57;2.53;;;12.00;99.90;;;;;;5043382;28;20182;-42
2023/06/05 03:11:10;;;;;;;3.80;2.40;;;11.90;99.90;;;;;;5036654;28;20187;-40
2023/06/05 03:13:36;;;;;;;6.07;2.70;;;11.90;99.90;;;;;;5048902;28;20178;-40
2023/06/05 03:16:02;;;;;;;4.10;2.80;;;11.80;99.90;;;;;;5043079;28;20189;-42
2023/06/05 03:18:31;;;;;;;3.13;2.70;;;11.80;99.90;;;;;;5054310;28;20254;-41
2023/06/05 03:20:59;;;;;;;3.20;2.83;;;11.80;99.90;;;;;;5032779;28;20183;-41
2023/06/05 03:23:27;;;;;;;4.03;3.17;;;11.70;99.90;;;;;;5063462;28;20180;-40
2023/06/05 03:25:55;;;;;;;4.77;3.00;;;11.70;99.90;;;;;;5055572;28;20185;-40
2023/06/05 03:28:22;;;;;;;3.67;3.10;;;11.80;99.90;;;;;;5063822;28;20187;-39
2023/06/05 03:30:49;;;;;;;3.37;2.60;;;11.80;99.90;;;;;;5045086;28;20190;-42
2023/06/05 03:33:17;;;;;;;3.57;2.63;;;11.80;99.90;;;;;;5031675;28;20198;-41
2023/06/05 03:35:47;;;;;;;5.13;3.17;;;11.80;99.90;;;;;;5045230;28;20183;-41
2023/06/05 03:38:13;;;;;;;4.70;3.20;;;11.80;99.90;;;;;;5026198;28;20207;-41
2023/06/05 03:40:39;;;;;;;3.33;2.97;;;11.80;99.90;;;;;;5041704;28;20182;-41
2023/06/05 03:43:08;;;;;;;3.87;2.73;;;11.90;99.90;;;;;;5044436;28;20224;-42
2023/06/05 03:45:36;;;;;;;3.77;2.93;;;11.80;99.90;;;;;;5059376;28;20246;-41
2023/06/05 03:48:03;;;;;;;3.57;2.90;;;11.70;99.90;;;;;;5038917;28;20187;-38
2023/06/05 03:50:37;;;;;;;4.03;2.87;;;11.70;99.90;;;;;;5037802;28;20202;-40
2023/06/05 03:53:03;;;;;;;4.07;2.73;;;11.80;99.90;;;;;;5041231;28;20194;-44
2023/06/05 03:55:40;;;;;;;5.40;3.17;;;11.80;99.90;;;;;;5055800;28;20197;-41
2023/06/05 03:58:15;;;;;;;4.50;3.00;;;11.80;99.90;;;;;;5049940;28;20201;-43
2023/06/05 04:00:44;;;;;;;3.70;2.87;;;11.70;99.90;;;;;;5026161;28;20182;-41
2023/06/05 04:03:12;;;;;;;4.57;2.87;;;11.70;99.90;;;;;;5058829;28;20190;-42
2023/06/05 04:05:39;;;;;;;4.27;2.67;;;11.60;99.90;;;;;;5042985;28;20212;-41
2023/06/05 04:08:06;;;;;;;7.13;3.20;;;11.60;99.90;;;;;;5034571;28;20279;-40
2023/06/05 04:10:33;;;;;;;3.23;2.80;;;11.70;99.90;;;;;;5020090;28;20311;-40
2023/06/05 04:12:59;;;;;;;3.53;2.53;;;11.70;99.90;;;;;;5040356;28;20181;-42
2023/06/05 04:15:26;;;;;;;3.57;2.80;;;11.70;99.90;;;;;;5037633;28;20207;-42
2023/06/05 04:17:53;;;;;;;4.90;3.00;;;11.80;99.90;;;;;;5057569;28;20220;-39
2023/06/05 04:20:19;;;;;;;5.70;3.23;;;11.90;99.90;;;;;;5050955;28;20189;-42
2023/06/05 04:22:45;;;;;;;5.03;3.00;;;11.90;99.90;;;;;;5027779;28;20182;-35
2023/06/05 04:25:14;;;;;;;4.17;2.80;;;12.00;99.90;;;;;;5032403;28;20229;-41
2023/06/05 04:27:43;;;;;;;3.50;2.90;;;11.90;99.90;;;;;;5041343;28;20190;-37
2023/06/05 04:30:12;;;;;;;4.63;2.63;;;11.90;99.90;;;;;;5042897;28;20180;-42
2023/06/05 04:32:38;;;;;;;3.60;2.83;;;11.90;99.90;;;;;;5046936;28;20204;-41
2023/06/05 04:35:08;;;;;;;3.47;3.07;;;12.00;99.90;;;;;;5025615;28;20233;-41
2023/06/05 04:37:37;;;;;;;4.10;2.87;;;12.10;99.90;;;;;;5020043;28;20204;-44
2023/06/05 04:40:05;;;;;;;3.77;3.07;;;12.10;99.90;;;;;;5057346;28;20261;-41
2023/06/05 04:42:33;;;;;;;4.13;2.93;;;12.10;99.90;;;;;;5024400;28;20202;-41
2023/06/05 04:45:03;;;;;;;4.10;3.10;;;12.20;99.90;;;;;;5031482;28;20202;-41
2023/06/05 04:47:32;;;;;;;3.07;2.70;;;12.20;99.90;;;;;;5053194;28;20189;-41
2023/06/05 04:49:59;;;;;;;3.80;2.97;;;12.30;99.90;;;;;;5038087;28;20197;-41
2023/06/05 04:52:26;;;;;;;4.27;3.00;;;12.30;99.90;;;;;;5048634;28;20178;-42
2023/06/05 04:54:52;;;;;;;3.03;2.73;;;12.30;99.90;;;;;;5025160;28;20288;-41
2023/06/05 04:57:18;;;;;;;5.47;3.57;;;12.40;99.90;;;;;;5032957;28;20218;-42
2023/06/05 04:59:45;;;;;;;5.13;3.80;;;12.40;99.90;;;;;;5024285;28;20174;-42
2023/06/05 05:02:15;;;;;;;3.97;3.47;;;12.50;99.90;;;;;;5046976;28;20185;-43
2023/06/05 05:04:43;;;;;;;5.90;3.60;;;12.50;99.90;;;;;;5048800;28;20200;-43
2023/06/05 05:07:14;;;;;;;6.00;3.70;;;12.60;99.90;;;;;;5050617;28;20178;-42
2023/06/05 05:09:43;;;;;;;6.23;3.67;;;12.60;99.90;;;;;;5041659;28;20189;-40
2023/06/05 05:12:11;;;;;;;5.77;3.73;;;12.70;99.90;;;;;;5026567;28;20209;-43
2023/06/05 05:14:37;;;;;;;6.03;3.80;;;12.70;99.90;;;;;;5041361;28;20205;-43
2023/06/05 05:17:03;;;;;;;4.67;3.70;;;12.80;99.90;;;;;;5031649;28;20193;-41
2023/06/05 05:19:30;;;;;;;4.00;3.60;;;12.80;99.90;;;;;;5040967;28;20177;-43
2023/06/05 05:22:03;;;;;;;5.63;3.97;;;12.90;99.90;;;;;;5029262;28;20188;-40
2023/06/05 05:24:35;;;;;;;7.43;4.33;;;12.90;99.90;;;;;;5043015;28;20189;-42
2023/06/05 05:27:08;;;;;;;7.27;3.57;;;13.00;99.90;;;;;;5022599;28;20183;-43
2023/06/05 05:29:38;;;;;;;4.57;3.80;;;13.10;99.90;;;;;;5029557;28;20173;-42
2023/06/05 05:32:05;;;;;;;6.00;4.13;;;13.20;99.90;;;;;;5049992;28;20234;-41
2023/06/05 05:34:33;;;;;;;5.50;4.30;;;13.40;99.90;;;;;;5064845;28;20212;-43
2023/06/05 05:37:01;;;;;;;6.73;4.17;;;13.50;99.90;;;;;;5067206;28;20203;-42
2023/06/05 05:39:27;;;;;;;7.43;4.17;;;13.50;99.90;;;;;;5021485;28;20209;-42
2023/06/05 05:41:53;;;;;;;4.73;3.70;;;13.60;99.90;;;;;;5038897;28;20216;-42
2023/06/05 05:44:19;;;;;;;5.53;3.90;;;13.80;99.90;;;;;;5069023;28;20252;-42
2023/06/05 05:46:47;;;;;;;5.87;3.87;;;13.90;99.90;;;;;;5049005;28;20184;-41
2023/06/05 05:49:13;;;;;;;5.27;3.40;;;14.00;99.90;;;;;;5047740;28;20198;-42
2023/06/05 05:51:43;;;;;;;4.87;3.60;;;14.20;99.90;;;;;;5047843;28;20667;-38
2023/06/05 05:54:10;;;;;;;4.17;3.73;;;14.30;99.90;;;;;;5047585;28;20253;-41
2023/06/05 05:56:37;;;;;;;4.77;4.20;;;14.50;99.90;;;;;;5056856;28;20243;-41
2023/06/05 05:59:09;;;;;;;5.83;3.70;;;14.60;99.90;;;;;;5038555;28;20309;-41
2023/06/05 06:01:36;;;;;;;5.20;3.73;;;14.80;99.90;;;;;;5047763;28;20189;-37
2023/06/05 06:04:07;;;;;;;5.67;3.50;;;14.90;99.90;;;;;;5048695;28;20206;-42
2023/06/05 06:06:33;;;;;;;5.33;3.10;;;15.00;99.90;;;;;;5021217;28;20182;-40
2023/06/05 06:08:58;;;;;;;3.73;3.20;;;15.20;99.90;;;;;;5044839;28;20186;-42
2023/06/05 06:11:26;;;;;;;3.60;3.30;;;15.30;99.90;;;;;;5051393;28;20189;-42
2023/06/05 06:13:52;;;;;;;4.73;3.37;;;15.50;99.90;;;;;;5057526;28;20205;-40
2023/06/05 06:16:18;;;;;;;4.80;3.47;;;15.70;99.90;;;;;;5050737;28;20191;-42
2023/06/05 06:18:43;;;;;;;4.57;3.10;;;15.80;99.90;;;;;;5052008;28;20304;-42
2023/06/05 06:21:09;;;;;;;4.93;3.33;;;16.00;99.90;;;;;;5053383;28;20205;-42
2023/06/05 06:23:35;;;;;;;4.07;3.40;;;16.10;99.90;;;;;;5045635;28;20185;-42
2023/06/05 06:26:01;;;;;;;7.03;3.93;;;16.10;99.90;;;;;;5060470;28;20184;-41
2023/06/05 06:28:27;;;;;;;4.37;3.57;;;16.40;99.90;;;;;;5059972;28;20189;-42
2023/06/05 06:30:54;;;;;;;3.77;3.37;;;16.50;99.90;;;;;;5055605;28;20245;-33
2023/06/05 06:33:19;;;;;;;4.50;4.03;;;16.70;99.90;;;;;;5067924;28;20186;-40
2023/06/05 06:35:45;;;;;;;4.23;3.63;;;16.80;99.90;;;;;;5057024;28;20201;-41
2023/06/05 06:38:11;;;;;;;4.83;4.33;;;17.00;99.90;;;;;;5066846;28;20249;-42
2023/06/05 06:40:37;;;;;;;5.37;4.07;;;17.10;99.90;;;;;;5030928;28;20187;-41
2023/06/05 06:43:03;;;;;;;5.77;4.00;;;17.30;99.90;;;;;;5049900;28;20214;-42
2023/06/05 06:45:41;;;;;;;6.60;4.00;;;17.40;99.90;;;;;;5040876;28;20689;-42
2023/06/05 06:48:07;;;;;;;4.70;3.53;;;17.50;99.90;;;;;;5052178;28;20182;-42
2023/06/05 06:50:33;;;;;;;5.07;3.83;;;17.70;99.90;;;;;;5051801;28;20239;-41
2023/06/05 06:53:01;;;;;;;5.17;3.53;;;17.80;99.90;;;;;;5063626;28;20193;-41
2023/06/05 06:55:27;;;;;;;4.15;3.63;;;18.00;99.90;;;;;;5037577;28;20209;-42
2023/06/05 06:57:53;;;;;;;6.20;3.80;;;18.10;99.90;;;;;;5036910;28;20268;-40
2023/06/05 07:00:20;;;;;;;4.38;3.67;;;18.20;99.90;;;;;;5065658;28;20687;-42
2023/06/05 07:02:47;;;;;;;4.00;3.60;;;18.30;99.90;;;;;;5054171;28;20260;-40
2023/06/05 07:05:14;;;;;;;6.78;3.80;;;18.40;99.90;;;;;;5058836;28;20198;-41
2023/06/05 07:07:40;;;;;;;3.88;3.58;;;18.50;99.90;;;;;;5061820;28;20185;-41
2023/06/05 07:10:06;;;;;;;5.07;3.92;;;18.80;99.90;;;;;;5041636;28;20244;-41
2023/06/05 07:12:32;;;;;;;6.38;3.65;;;19.00;99.90;;;;;;5036763;28;20547;-42
2023/06/05 07:14:57;;;;;;;5.88;3.40;;;19.10;99.90;;;;;;5043323;28;20457;-43
2023/06/05 07:17:23;;;;;;;5.05;3.50;;;19.10;99.90;;;;;;5067881;28;20205;-42
2023/06/05 07:19:50;;;;;;;5.75;3.50;;;19.30;99.90;;;;;;5042810;28;20178;-41
2023/06/05 07:22:16;;;;;;;4.50;3.90;;;19.50;99.90;;;;;;5042585;28;20209;-42
2023/06/05 07:24:42;;;;;;;3.97;3.50;;;19.70;99.90;;;;;;5071041;28;20686;-43
2023/06/05 07:27:08;;;;;;;3.85;3.15;;;19.80;99.90;;;;;;5043504;28;20178;-41
2023/06/05 07:29:34;;;;;;;4.75;3.80;;;19.90;99.90;;;;;;5029200;28;20174;-41
2023/06/05 07:31:59;;;;;;;4.10;3.70;;;20.10;99.90;;;;;;5065462;28;20181;-42
2023/06/05 07:34:26;;;;;;;4.00;3.60;;;20.10;99.90;;;;;;5062337;28;20211;-41
2023/06/05 07:36:53;;;;;;;5.75;3.83;;;20.10;99.90;;;;;;5038761;28;20208;-41
2023/06/05 07:39:22;;;;;;;5.30;3.70;;;20.30;99.90;;;;;;5056332;28;20748;-42
2023/06/05 07:41:48;;;;;;;5.18;4.05;;;20.40;99.90;;;;;;5055434;28;20181;-40
2023/06/05 07:44:16;;;;;;;5.85;3.55;;;20.60;99.90;;;;;;5018600;28;20210;-40
2023/06/05 07:46:43;;;;;;;5.60;3.95;;;20.70;99.90;;;;;;5056362;28;20404;-42
2023/06/05 07:49:10;;;;;;;5.40;3.85;;;20.80;99.90;;;;;;5064980;28;20185;-42
2023/06/05 07:51:37;;;;;;;3.97;3.50;;;20.70;99.90;;;;;;5044852;28;20223;-42
2023/06/05 07:54:11;;;;;;;5.45;3.60;;;20.70;99.90;;;;;;5068329;28;20701;-41
2023/06/05 07:56:38;;;;;;;5.32;3.63;;;20.80;99.90;;;;;;5036033;28;20181;-42
2023/06/05 07:59:05;;;;;;;4.32;3.42;;;21.00;99.90;;;;;;5067838;28;20213;-42
2023/06/05 08:01:36;;;;;;;4.13;3.72;;;21.20;99.90;;;;;;5050001;28;20187;-42
2023/06/05 08:04:03;;;;;;;4.03;3.60;;;21.30;99.90;;;;;;5032189;28;20668;-35
2023/06/05 08:06:29;;;;;;;5.13;3.30;;;21.30;99.90;;;;;;5046958;28;20301;-42
2023/06/05 08:08:56;;;;;;;5.30;3.80;;;21.60;99.90;;;;;;5046297;28;20181;-43
2023/06/05 08:11:22;;;;;;;5.88;3.88;;;21.80;99.90;;;;;;5060352;28;20403;-41
2023/06/05 08:13:48;;;;;;;3.75;3.45;;;22.00;99.90;;;;;;5065593;28;20291;-41
2023/06/05 08:16:15;;;;;;;4.55;3.50;;;22.00;99.90;;;;;;5060493;28;20194;-42
2023/06/05 08:18:42;;;;;;;5.07;3.45;;;22.20;99.90;;;;;;5053123;28;20200;-42
2023/06/05 08:21:07;;;;;;;4.93;3.72;;;22.40;99.90;;;;;;5044751;28;20181;-43
2023/06/05 08:23:33;;;;;;;4.03;3.63;;;22.50;99.90;;;;;;5047085;28;20272;-42
2023/06/05 08:25:59;;;;;;;6.45;4.38;;;22.50;99.90;;;;;;5041966;28;20227;-41
2023/06/05 08:28:25;;;;;;;6.10;4.00;;;22.50;99.90;;;;;;5061934;28;20183;-42
2023/06/05 08:30:51;;;;;;;7.20;4.85;;;22.50;99.90;;;;;;5066228;28;20184;-43
2023/06/05 08:33:21;;;;;;;5.85;4.07;;;22.60;99.90;;;;;;5050164;28;20193;-41
2023/06/05 08:35:47;;;;;;;5.63;3.97;;;22.60;99.90;;;;;;5049957;28;20208;-42
2023/06/05 08:38:13;;;;;;;5.75;4.10;;;22.80;99.90;;;;;;5041350;28;20309;-42
2023/06/05 08:40:39;;;;;;;5.53;4.20;;;22.90;99.90;;;;;;5038655;28;20273;-40
2023/06/05 08:43:05;;;;;;;5.65;3.97;;;23.00;99.90;;;;;;5062650;28;20208;-42
2023/06/05 08:45:32;;;;;;;6.68;4.03;;;23.20;99.90;;;;;;5047845;28;20201;-42
2023/06/05 08:48:01;;;;;;;5.43;4.15;;;23.10;99.90;;;;;;5068972;28;20272;-42
2023/06/05 08:50:29;;;;;;;6.50;4.03;;;23.20;99.90;;;;;;5032520;28;20259;-43
2023/06/05 08:52:58;;;;;;;5.25;4.55;;;23.50;99.90;;;;;;5040350;28;20186;-42
2023/06/05 08:55:25;;;;;;;6.45;4.07;;;23.70;99.90;;;;;;5036376;28;20198;-42
2023/06/05 08:57:52;;;;;;;5.57;4.20;;;23.90;99.90;;;;;;5037403;28;20218;-43
2023/06/05 09:00:18;;;;;;;5.90;4.10;;;24.20;99.90;;;;;;5052166;28;20224;-43
2023/06/05 09:02:46;;;;;;;4.85;4.45;;;24.40;99.90;;;;;;5055854;28;20284;-41
2023/06/05 09:05:13;;;;;;;5.68;4.82;;;24.50;99.90;;;;;;5042375;28;20238;-43
2023/06/05 09:07:39;;;;;;;8.57;4.85;;;24.50;99.90;;;;;;5024881;28;20277;-42
2023/06/05 09:10:07;;;;;;;6.13;4.45;;;24.50;99.90;;;;;;5044097;28;20185;-42
2023/06/05 09:12:52;;;;;;;4.68;4.28;;;24.50;99.90;;;;;;5069356;28;20181;-42
2023/06/05 09:15:22;;;;;;;8.45;4.82;;;24.60;99.90;;;;;;5035603;28;20213;-43
2023/06/05 09:17:48;;;;;;;7.53;4.45;;;24.70;99.90;;;;;;5060638;28;20223;-41
2023/06/05 09:20:24;;;;;;;6.53;4.57;;;24.70;99.90;;;;;;5058575;28;20190;-43
2023/06/05 09:22:50;;;;;;;5.25;4.78;;;25.10;99.90;;;;;;5053318;28;20186;-43
2023/06/05 09:25:15;;;;;;;5.97;4.95;;;25.40;99.90;;;;;;5041986;28;20197;-42
2023/06/05 09:27:42;;;;;;;6.45;4.70;;;25.30;99.90;;;;;;5040275;28;20179;-42
2023/06/05 09:30:08;;;;;;;4.82;4.10;;;25.30;99.90;;;;;;5038032;28;20228;-41
2023/06/05 09:32:35;;;;;;;8.13;4.63;;;25.60;99.90;;;;;;5052387;28;20185;-42
2023/06/05 09:35:05;;;;;;;6.82;4.82;;;25.70;99.90;;;;;;5052152;28;20256;-43
2023/06/05 09:37:36;;;;;;;8.43;4.68;;;25.80;99.90;;;;;;5048086;28;20239;-43
2023/06/05 09:40:04;;;;;;;6.72;4.90;;;26.00;99.90;;;;;;5062934;28;20189;-43
2023/06/05 09:42:35;;;;;;;6.88;5.43;;;25.90;99.90;;;;;;5060598;28;20185;-42
2023/06/05 09:45:02;;;;;;;7.15;5.50;;;25.50;99.90;;;;;;5031414;28;20202;-42
2023/06/05 09:47:27;;;;;;;7.78;5.32;;;25.50;99.90;;;;;;5068421;28;20273;-43
2023/06/05 09:49:53;;;;;;;5.55;5.05;;;25.50;99.90;;;;;;5053714;28;20268;-43
2023/06/05 09:52:19;;;;;;;5.43;4.93;;;25.90;99.90;;;;;;5061375;28;20256;-43
2023/06/05 09:54:46;;;;;;;7.28;5.15;;;26.30;99.90;;;;;;5049046;28;20291;-43
2023/06/05 09:57:14;;;;;;;6.15;5.20;;;26.60;99.90;;;;;;5044314;28;20200;-42
2023/06/05 09:59:54;;;;;;;6.65;4.82;;;26.70;99.90;;;;;;5046950;28;20199;-41
2023/06/05 10:02:27;;;;;;;5.85;4.47;;;26.70;99.90;;;;;;5068880;28;20212;-43
2023/06/05 10:05:13;;;;;;;5.22;4.70;;;26.70;99.90;;;;;;5052878;28;20201;-43
2023/06/05 10:07:40;;;;;;;4.57;4.15;;;26.80;99.90;;;;;;5047204;28;20186;-43
2023/06/05 10:10:09;;;;;;;5.15;4.60;;;26.60;99.90;;;;;;5040921;28;20286;-41
2023/06/05 10:12:35;;;;;;;5.85;5.00;;;26.50;99.90;;;;;;5037622;28;20189;-43
2023/06/05 10:15:02;;;;;;;4.82;4.43;;;26.60;99.90;;;;;;5051408;28;20212;-43
2023/06/05 10:17:28;;;;;;;5.32;4.82;;;26.60;99.90;;;;;;5064374;28;20185;-43
2023/06/05 10:19:55;;;;;;;7.20;4.60;;;26.50;99.90;;;;;;5040667;28;20214;-42
2023/06/05 10:22:21;;;;;;;5.72;4.80;;;26.30;99.90;;;;;;5058681;28;20177;-41
2023/06/05 10:24:58;;;;;;;7.18;4.28;;;26.30;99.90;;;;;;5059627;28;20296;-42
2023/06/05 10:27:38;;;;;;;6.22;4.38;;;26.40;99.90;;;;;;5045042;28;20192;-43
2023/06/05 10:30:13;;;;;;;5.88;4.93;;;26.50;99.90;;;;;;5064820;28;20640;-43
2023/06/05 10:33:01;;;;;;;5.53;4.50;;;26.80;99.90;;;;;;5060515;28;20170;-42
2023/06/05 10:36:05;;;;;;;4.90;4.40;;;27.10;99.90;;;;;;5039784;28;20202;-40
2023/06/05 10:38:33;;;;;;;6.15;4.50;;;27.20;99.90;;;;;;5030980;28;20201;-43
2023/06/05 10:41:01;;;;;;;5.88;4.22;;;27.40;99.90;;;;;;5059050;28;20193;-34
2023/06/05 10:43:31;;;;;;;4.63;4.22;;;27.40;99.90;;;;;;5036121;28;20170;-43
2023/06/05 10:46:00;;;;;;;4.72;4.20;;;27.50;99.90;;;;;;5054680;28;20189;-43
2023/06/05 10:49:03;;;;;;;6.20;4.63;;;27.70;99.90;;;;;;5055725;28;20266;-43
2023/06/05 10:51:49;;;;;;;4.80;4.40;;;27.70;99.90;;;;;;5045450;28;20268;-42
2023/06/05 10:54:24;;;;;;;5.75;4.60;;;27.90;99.90;;;;;;5061255;28;20209;-42
2023/06/05 10:57:04;;;;;;;5.32;4.60;;;28.10;99.40;;;;;;5050213;28;20177;-43
2023/06/05 10:59:35;;;;;;;6.43;4.45;;;28.40;99.90;;;;;;5031943;28;20209;-43
2023/06/05 11:02:16;;;;;;;4.82;4.35;;;28.40;98.50;;;;;;5064945;28;20207;-43
2023/06/05 11:04:48;;;;;;;4.72;4.30;;;28.20;98.90;;;;;;5058491;28;20195;-43
2023/06/05 11:07:18;;;;;;;4.80;4.40;;;28.50;99.90;;;;;;5050921;28;20208;-43
2023/06/05 11:10:05;;;;;;;6.53;4.55;;;28.60;99.20;;;;;;5044657;28;20174;-40
2023/06/05 11:12:40;;;;;;;8.85;4.50;;;28.40;97.40;;;;;;5063098;28;20173;-43
2023/06/05 11:15:08;;;;;;;5.32;4.75;;;28.30;99.80;;;;;;5049210;28;20236;-43
2023/06/05 11:17:35;;;;;;;5.85;4.95;;;28.50;98.80;;;;;;5051200;28;20267;-43
2023/06/05 11:20:09;;;;;;;4.97;4.25;;;28.30;97.30;;;;;;5031487;28;20237;-41
2023/06/05 11:22:54;;;;;;;5.40;4.70;;;28.30;98.10;;;;;;5052315;28;20172;-43
2023/06/05 11:25:30;;;;;;;5.13;4.63;;;28.30;97.90;;;;;;5052114;28;20205;-43
2023/06/05 11:28:02;;;;;;;4.85;4.45;;;28.00;97.20;;;;;;5038620;28;20244;-43
2023/06/05 11:30:34;;;;;;;5.70;4.60;;;28.10;97.70;;;;;;5040242;28;20182;-43
2023/06/05 11:33:12;;;;;;;5.75;4.68;;;28.40;97.20;;;;;;5050294;28;20201;-37
2023/06/05 11:35:42;;;;;;;6.93;4.80;;;28.50;95.70;;;;;;5050496;28;20206;-43
2023/06/05 11:38:22;;;;;;;6.10;5.20;;;28.10;95.50;;;;;;5042683;28;20278;-43
2023/06/05 11:40:48;;;;;;;5.10;4.60;;;27.90;96.10;;;;;;5037351;28;20243;-42
2023/06/05 11:43:15;;;;;;;5.20;4.70;;;28.00;96.80;;;;;;5042435;28;20181;-43
2023/06/05 11:45:48;;;;;;;5.93;4.80;;;28.30;96.00;;;;;;5055495;28;20212;-43
2023/06/05 11:48:14;;;;;;;4.68;4.20;;;28.20;94.70;;;;;;5053687;28;20193;-43
2023/06/05 11:51:00;;;;;;;6.22;5.18;;;28.50;96.80;;;;;;5056756;28;20185;-43
2023/06/05 11:53:27;;;;;;;5.35;4.85;;;28.70;98.00;;;;;;5052588;28;20181;-42
2023/06/05 11:56:06;;;;;;;5.55;4.13;;;28.70;97.00;;;;;;5066726;28;20199;-43
2023/06/05 11:58:41;;;;;;;7.05;4.78;;;28.20;96.30;;;;;;5051830;28;20224;-43
2023/06/05 12:01:12;;;;;;;4.88;4.43;;;28.00;96.60;;;;;;5058506;28;20189;-41
2023/06/05 12:03:39;;;;;;;5.00;4.50;;;28.00;96.00;;;;;;5071637;28;20181;-44
2023/06/05 12:06:05;;;;;;;5.28;4.68;;;28.10;97.50;;;;;;5036459;28;20182;-44
2023/06/05 12:08:33;;;;;;;5.30;4.35;;;28.30;97.00;;;;;;5048350;28;20181;-43
2023/06/05 12:11:00;;;;;;;5.32;4.80;;;28.70;96.60;;;;;;5039140;28;20187;-43
2023/06/05 12:13:47;;;;;;;5.32;4.82;;;28.90;96.10;;;;;;5058099;28;20208;-43
2023/06/05 12:16:13;;;;;;;5.35;4.82;;;29.00;94.60;;;;;;5046603;28;20180;-42
2023/06/05 12:18:39;;;;;;;6.75;4.80;;;29.30;95.20;;;;;;5019764;28;20260;-42
2023/06/05 12:21:06;;;;;;;4.80;4.25;;;29.40;95.10;;;;;;5047306;28;20174;-43
2023/06/05 12:23:33;;;;;;;5.35;4.78;;;29.60;95.70;;;;;;5046807;28;20189;-43
2023/06/05 12:26:04;;;;;;;6.47;4.70;;;29.80;94.60;;;;;;5042259;28;20184;-43
2023/06/05 12:28:31;;;;;;;5.38;4.88;;;29.80;94.40;;;;;;5037610;28;20185;-42
2023/06/05 12:30:58;;;;;;;6.00;4.93;;;30.10;94.80;;;;;;5036524;28;20196;-42
2023/06/05 12:33:24;;;;;;;6.93;4.82;;;30.40;94.70;;;;;;5024732;28;20204;-42
2023/06/05 12:36:05;;;;;;;5.32;4.60;;;30.10;93.90;;;;;;5054237;28;20197;-42
2023/06/05 12:38:36;;;;;;;6.40;4.85;;;29.90;94.20;;;;;;5018729;28;20201;-42
2023/06/05 12:41:02;;;;;;;5.20;4.68;;;29.40;94.00;;;;;;5034942;28;20173;-43
2023/06/05 12:43:28;;;;;;;5.63;5.03;;;29.50;95.70;;;;;;5064282;28;20182;-42
2023/06/05 12:45:54;;;;;;;5.45;4.95;;;29.60;94.50;;;;;;5057164;28;20181;-42
2023/06/05 12:48:20;;;;;;;6.97;5.32;;;29.60;94.50;;;;;;5031364;28;20183;-42
2023/06/05 12:50:47;;;;;;;5.95;5.03;;;29.90;93.20;;;;;;5037733;28;20186;-42
2023/06/05 12:53:13;;;;;;;5.07;4.60;;;30.30;92.50;;;;;;5047174;28;20242;-40
2023/06/05 12:55:41;;;;;;;6.93;5.20;;;30.20;91.40;;;;;;5031344;28;20218;-42